createdAt,value
2023-03-24T00:03:05.432Z,3.72
2023-03-24T00:08:10.698Z,3.53
2023-03-24T00:18:18.906Z,3.47
2023-03-24T00:23:23.616Z,3.38
2023-03-24T00:33:31.799Z,3.13
2023-03-24T00:38:36.455Z,3.92
2023-03-24T00:43:40.021Z,4.00
2023-03-24T00:48:43.283Z,3.85
2023-03-24T00:53:48.312Z,3.40
2023-03-24T00:58:51.556Z,3.53
2023-03-24T01:03:56.788Z,4.05
2023-03-24T01:09:04.642Z,3.65
2023-03-24T01:14:09.723Z,3.28
2023-03-24T01:24:18.288Z,3.70
2023-03-24T01:29:21.425Z,3.58
2023-03-24T01:34:24.970Z,3.30
2023-03-24T01:39:30.228Z,3.90
2023-03-24T01:49:43.271Z,3.53
2023-03-24T01:54:51.661Z,2.97
2023-03-24T02:00:00.315Z,3.35
2023-03-24T02:05:37.333Z,2.75
2023-03-24T02:10:44.140Z,3.22
2023-03-24T02:15:58.260Z,2.72
2023-03-24T02:21:42.105Z,3.25
2023-03-24T02:27:09.729Z,2.88
2023-03-24T02:32:56.566Z,2.95
2023-03-24T02:38:34.516Z,2.97
2023-03-24T02:43:47.521Z,3.47
2023-03-24T02:49:07.122Z,3.30
2023-03-24T02:54:15.661Z,2.97
2023-03-24T02:59:26.139Z,2.92
2023-03-24T03:04:37.095Z,3.10
2023-03-24T03:09:47.492Z,3.33
2023-03-24T03:14:56.443Z,2.92
2023-03-24T03:20:08.499Z,2.72
2023-03-24T03:25:16.486Z,3.25
2023-03-24T03:30:25.140Z,2.95
2023-03-24T03:35:33.454Z,2.97
2023-03-24T03:40:41.703Z,2.83
2023-03-24T03:45:53.627Z,3.10
2023-03-24T03:51:13.067Z,2.95
2023-03-24T03:56:24.206Z,3.03
2023-03-24T04:01:42.935Z,2.83
2023-03-24T04:07:13.913Z,3.47
2023-03-24T04:12:40.889Z,2.97
2023-03-24T04:18:27.195Z,3.10
2023-03-24T04:23:45.997Z,3.30
2023-03-24T04:28:58.149Z,3.45
2023-03-24T04:34:17.585Z,3.15
2023-03-24T04:39:28.305Z,3.85
2023-03-24T04:44:33.720Z,4.30
2023-03-24T04:50:08.021Z,4.10
2023-03-24T04:55:32.334Z,3.85
2023-03-24T05:00:37.013Z,4.22
2023-03-24T05:05:42.708Z,4.03
2023-03-24T05:10:47.342Z,4.47
2023-03-24T05:15:53.023Z,3.80
2023-03-24T05:21:15.717Z,3.53
2023-03-24T05:31:37.374Z,3.78
2023-03-24T05:36:50.797Z,3.53
2023-03-24T05:41:58.032Z,4.05
2023-03-24T05:47:01.897Z,3.95
2023-03-24T05:52:09.209Z,3.67
2023-03-24T05:57:16.203Z,3.92
2023-03-24T06:02:47.268Z,3.72
2023-03-24T06:08:11.123Z,3.70
2023-03-24T06:13:15.013Z,3.42
2023-03-24T06:18:21.822Z,3.10
2023-03-24T06:23:29.386Z,3.13
2023-03-24T06:28:45.232Z,3.50
2023-03-24T06:33:54.737Z,2.80
2023-03-24T06:38:59.904Z,2.90
2023-03-24T06:44:04.471Z,2.95
2023-03-24T06:49:32.459Z,3.28
2023-03-24T06:54:57.474Z,3.55
2023-03-24T07:00:29.659Z,2.75
2023-03-24T07:05:57.334Z,2.65
2023-03-24T07:11:30.322Z,3.63
2023-03-24T07:16:58.177Z,2.85
2023-03-24T07:22:52.988Z,3.10
2023-03-24T07:28:44.705Z,3.17
2023-03-24T07:34:01.893Z,3.28
2023-03-24T07:39:16.172Z,2.72
2023-03-24T07:44:37.080Z,2.85
2023-03-24T07:50:04.334Z,2.72
2023-03-24T07:55:29.640Z,3.13
2023-03-24T08:00:53.275Z,2.50
2023-03-24T08:06:11.818Z,2.80
2023-03-24T08:11:52.070Z,3.30
2023-03-24T08:17:07.928Z,3.00
2023-03-24T08:22:34.308Z,3.33
2023-03-24T08:27:50.473Z,3.08
2023-03-24T08:33:06.304Z,3.20
2023-03-24T08:38:17.492Z,2.90
2023-03-24T08:43:42.331Z,2.70
2023-03-24T08:54:30.102Z,2.88
2023-03-24T08:59:45.920Z,2.80
2023-03-24T09:05:29.302Z,3.22
2023-03-24T09:10:56.116Z,2.90
2023-03-24T09:16:29.075Z,3.00
2023-03-24T09:22:03.108Z,2.70
2023-03-24T09:33:41.843Z,2.28
2023-03-24T09:39:02.407Z,3.28
2023-03-24T09:44:38.920Z,2.60
2023-03-24T09:49:44.280Z,2.58
2023-03-24T09:54:54.065Z,2.47
2023-03-24T09:59:58.221Z,2.78
2023-03-24T10:05:01.789Z,2.13
2023-03-24T10:10:21.210Z,2.08
2023-03-24T10:15:37.899Z,2.50
2023-03-24T10:20:46.012Z,1.88
2023-03-24T10:25:54.143Z,1.58
2023-03-24T10:31:02.374Z,1.58
2023-03-24T10:36:11.208Z,1.85
2023-03-24T10:41:19.783Z,2.28
2023-03-24T10:46:27.103Z,1.90
2023-03-24T10:51:33.333Z,2.17
2023-03-24T10:56:42.773Z,2.13
2023-03-24T11:01:46.659Z,2.08
2023-03-24T11:07:02.092Z,2.20
2023-03-24T11:12:22.399Z,2.40
2023-03-24T11:17:26.200Z,1.98
2023-03-24T11:22:30.613Z,1.58
2023-03-24T11:27:41.865Z,1.70
2023-03-24T11:32:48.200Z,1.60
2023-03-24T11:37:51.674Z,1.33
2023-03-24T11:42:59.143Z,1.30
2023-03-24T11:48:11.301Z,1.52
2023-03-24T11:53:18.935Z,1.48
2023-03-24T11:58:33.495Z,1.20
2023-03-24T12:04:15.869Z,1.42
2023-03-24T12:09:25.839Z,1.60
2023-03-24T12:14:43.610Z,1.80
2023-03-24T12:20:21.386Z,1.40
2023-03-24T12:25:49.446Z,1.58
2023-03-24T12:31:03.722Z,1.30
2023-03-24T12:36:19.862Z,1.33
2023-03-24T12:41:53.597Z,1.05
2023-03-24T12:47:12.352Z,1.23
2023-03-24T12:52:44.044Z,1.15
2023-03-24T12:57:55.125Z,0.77
2023-03-24T13:03:04.812Z,0.63
2023-03-24T13:08:16.488Z,0.85
2023-03-24T13:13:23.675Z,0.73
2023-03-24T13:18:32.992Z,0.80
2023-03-24T13:23:49.751Z,0.70
2023-03-24T13:29:01.494Z,0.80
2023-03-24T13:34:18.701Z,1.42
2023-03-24T13:39:25.425Z,0.95
2023-03-24T13:44:35.780Z,1.13
2023-03-24T13:49:42.523Z,0.80
2023-03-24T13:54:47.542Z,0.93
2023-03-24T14:05:11.570Z,0.70
2023-03-24T14:10:46.726Z,0.63
2023-03-24T14:15:52.050Z,1.05
2023-03-24T14:21:03.896Z,0.70
2023-03-24T14:26:12.036Z,0.80
2023-03-24T14:31:24.602Z,0.77
2023-03-24T14:36:32.918Z,0.88
2023-03-24T14:41:40.204Z,1.13
2023-03-24T14:46:47.881Z,1.00
2023-03-24T14:52:01.999Z,0.73
2023-03-24T14:57:06.885Z,0.75
2023-03-24T15:02:22.071Z,1.15
2023-03-24T15:07:27.248Z,0.57
2023-03-24T15:12:30.822Z,1.10
2023-03-24T15:17:34.992Z,0.75
2023-03-24T15:22:42.828Z,1.20
2023-03-24T15:27:50.345Z,0.90
2023-03-24T15:32:54.999Z,1.00
2023-03-24T15:37:59.675Z,1.10
2023-03-24T15:43:05.188Z,1.27
2023-03-24T15:48:14.488Z,1.08
2023-03-24T15:53:25.171Z,1.65
2023-03-24T15:58:32.244Z,0.98
2023-03-24T16:03:36.174Z,1.70
2023-03-24T16:08:43.173Z,1.10
2023-03-24T16:13:46.536Z,1.02
2023-03-24T16:18:50.432Z,1.50
2023-03-24T16:23:56.737Z,1.85
2023-03-24T16:29:07.917Z,1.88
2023-03-24T16:34:11.523Z,1.30
2023-03-24T16:39:18.425Z,1.45
2023-03-24T16:44:22.265Z,1.25
2023-03-24T16:49:26.115Z,1.27
2023-03-24T16:54:31.601Z,1.55
2023-03-24T16:59:34.914Z,1.52
2023-03-24T17:04:38.115Z,1.50
2023-03-24T17:09:43.270Z,1.48
2023-03-24T17:14:46.518Z,1.63
2023-03-24T17:19:49.813Z,1.60
2023-03-24T17:24:58.231Z,1.70
2023-03-24T17:30:02.195Z,1.40
2023-03-24T17:35:10.035Z,1.37
2023-03-24T17:40:17.688Z,1.42
2023-03-24T17:45:21.428Z,1.50
2023-03-24T17:50:25.513Z,1.50
2023-03-24T17:55:30.264Z,2.00
2023-03-24T18:00:33.995Z,1.65
2023-03-24T18:05:38.191Z,1.48
2023-03-24T18:10:43.070Z,1.98
2023-03-24T18:15:46.344Z,2.65
2023-03-24T18:20:49.752Z,2.45
2023-03-24T18:26:04.402Z,1.80
2023-03-24T18:31:09.635Z,2.40
2023-03-24T18:36:16.560Z,3.03
2023-03-24T18:41:24.494Z,3.00
2023-03-24T18:46:28.448Z,3.13
2023-03-24T18:51:33.066Z,2.97
2023-03-24T18:56:56.786Z,3.25
2023-03-24T19:02:00.574Z,3.35
2023-03-24T19:07:08.073Z,6.50
2023-03-24T19:12:16.973Z,5.70
2023-03-24T19:17:20.505Z,3.40
2023-03-24T19:22:24.112Z,3.42
2023-03-24T19:27:28.803Z,2.03
2023-03-24T19:32:32.544Z,2.10
2023-03-24T19:37:37.001Z,2.30
2023-03-24T19:42:44.918Z,2.23
2023-03-24T19:47:48.718Z,2.30
2023-03-24T19:52:52.425Z,3.38
2023-03-24T19:57:57.518Z,3.13
2023-03-24T20:03:01.663Z,2.97
2023-03-24T20:08:05.568Z,2.28
2023-03-24T20:13:10.660Z,2.33
2023-03-24T20:18:14.120Z,1.45
2023-03-24T20:23:17.411Z,1.92
2023-03-24T20:28:22.309Z,1.95
2023-03-24T20:33:28.674Z,1.67
2023-03-24T20:38:32.064Z,1.95
2023-03-24T20:43:37.426Z,1.77
2023-03-24T20:48:41.608Z,1.90
2023-03-24T20:53:45.147Z,1.70
2023-03-24T20:58:50.293Z,1.90
2023-03-24T21:03:54.646Z,2.10
2023-03-24T21:14:04.358Z,2.10
2023-03-24T21:19:10.333Z,2.15
2023-03-24T21:24:13.719Z,1.83
2023-03-24T21:29:18.715Z,1.60
2023-03-24T21:34:21.940Z,1.98
2023-03-24T21:39:25.381Z,2.38
2023-03-24T21:44:30.281Z,1.70
2023-03-24T21:49:34.691Z,1.92
2023-03-24T21:54:38.777Z,1.65
2023-03-24T21:59:43.681Z,2.10
2023-03-24T22:04:47.970Z,2.27
2023-03-24T22:09:52.377Z,1.67
2023-03-24T22:14:57.084Z,2.03
2023-03-24T22:20:00.392Z,1.93
2023-03-24T22:25:04.419Z,2.25
2023-03-24T22:30:12.057Z,2.23
2023-03-24T22:35:16.640Z,2.03
2023-03-24T22:40:20.375Z,2.20
2023-03-24T22:45:24.953Z,2.08
2023-03-24T22:50:28.132Z,2.40
2023-03-24T22:55:31.348Z,2.40
2023-03-24T23:00:36.852Z,2.42
2023-03-24T23:05:40.920Z,2.22
2023-03-24T23:10:46.451Z,2.33
2023-03-24T23:15:52.291Z,1.83
2023-03-24T23:21:02.677Z,2.33
2023-03-24T23:26:06.619Z,2.45
2023-03-24T23:31:16.062Z,2.33
2023-03-24T23:36:19.669Z,2.00
2023-03-24T23:41:24.428Z,1.98
2023-03-24T23:46:29.123Z,2.00
2023-03-24T23:51:32.593Z,1.73
2023-03-24T23:56:38.679Z,1.67
